An Xiu Shan — BRQV — position and weather

sailwx.info

Track history (hours):
 
Tides and Currents Weather Stations Pressure Air Temp Water Temp Dewpoint Dewpoint Depression Visibility Wind Speed Wind Dir Waves Ship Positions

An Xiu Shan

Last reported at 2014-Sep-18 19:14 UTC. Time now 2014-Sep-18 19:46 UTC.
Position N 39°46' E 119°53'.

Length 199 m; draft 7.2 m.

Type: Cargo ship. MMSI: 413195000.

Date/timePositionNaut miles runAvg speedWind from/ knotsBaromVisibWave heightAir tempDewpointWater temp
2014-Sep-18 19:14N 39°46' E 119°53'0 0.0
2014-Sep-18 18:32N 39°46' E 119°53'0 0.0
2014-Sep-18 11:32N 39°46' E 119°53'0 0.0
2014-Sep-18 10:32N 39°46' E 119°53'0 0.0
2014-Sep-18 09:32N 39°46' E 119°53'0 0.0
2014-Sep-18 08:32N 39°46' E 119°53'0 0.0
2014-Sep-18 07:32N 39°46' E 119°53'0 0.0
2014-Sep-18 06:32N 39°46' E 119°53'0 0.0
2014-Sep-18 05:32N 39°46' E 119°53'0 0.0
2014-Sep-18 04:32N 39°46' E 119°53'0 0.0
2014-Sep-18 03:20N 39°46' E 119°53'0 0.1
2014-Sep-18 02:32N 39°46' E 119°53'0 0.0
2014-Sep-18 01:32N 39°46' E 119°53'0 0.0
2014-Sep-18 00:32N 39°46' E 119°53'0 0.0
2014-Sep-17 23:14N 39°46' E 119°53'0 0.0
2014-Sep-17 21:32N 39°46' E 119°53'0 0.1
2014-Sep-17 20:32N 39°46' E 119°53'0 0.0
2014-Sep-17 19:32N 39°46' E 119°53'0 0.1
2014-Sep-17 18:32N 39°46' E 119°53'0 0.0
2014-Sep-17 17:26N 39°46' E 119°53'0 0.0
2014-Sep-17 16:32N 39°46' E 119°53'0 0.0
2014-Sep-17 15:32N 39°46' E 119°53'5 4.7
2014-Sep-17 14:33N 39°42' E 119°56'11110.8
2014-Sep-17 04:19N 38°19' E 121°30'4010.7
2014-Sep-17 00:33N 37°56' E 122°13'1111.2
2014-Sep-16 23:32N 37°50' E 122°25'1110.8
2014-Sep-16 22:33N 37°44' E 122°36'1010.1
2014-Sep-16 21:33N 37°35' E 122°43'1010.4
2014-Sep-16 20:33N 37°27' E 122°52'1110.8
2014-Sep-16 19:33N 37°17' E 122°53'1211.8
2014-Sep-16 18:33N 37°05' E 122°53'1212.4
2014-Sep-16 17:33N 36°52' E 122°53'1212.2
2014-Sep-16 16:33N 36°40' E 122°53'1111.4
2014-Sep-16 15:33N 36°29' E 122°55'29711.9
2014-Sep-15 14:31N 31°32' E 122°56'3210.8
2014-Sep-15 11:31N 30°60' E 122°57'1211.4
2014-Sep-15 10:29N 30°48' E 123°01'2511.9
2014-Sep-15 08:25N 30°23' E 123°01'1112.3
2014-Sep-15 07:33N 30°13' E 122°60'1211.3
2014-Sep-15 06:32N 30°02' E 122°56'1111.0
2014-Sep-15 05:31N 29°51' E 122°53'2310.4
2014-Sep-15 03:20N 29°30' E 122°44'910.0
2014-Sep-15 02:27N 29°21' E 122°40'9 9.7
2014-Sep-15 01:32N 29°13' E 122°37'1010.1
2014-Sep-15 00:30N 29°03' E 122°34'28610.1
2014-Sep-13 20:14N 25°01' E 119°43'2311.7
2014-Sep-13 18:17N 24°45' E 119°26'912.2
2014-Sep-13 17:32N 24°39' E 119°17'1312.6
2014-Sep-13 16:33N 24°31' E 119°08'1312.6
2014-Sep-13 15:33N 24°22' E 118°58'1313.3
2014-Sep-13 14:33N 24°13' E 118°47'1413.6
2014-Sep-13 13:31N 24°06' E 118°34'1212.5
2014-Sep-13 12:33N 23°57' E 118°25'1312.6
2014-Sep-13 11:33N 23°49' E 118°14'1212.2
2014-Sep-13 10:33N 23°41' E 118°04'1111.3
2014-Sep-13 09:33N 23°35' E 117°53'1411.3
2014-Sep-13 08:20N 23°25' E 117°43'1011.7
2014-Sep-13 07:29N 23°19' E 117°34'21511.8
2014-Sep-12 13:19N 21°58' E 113°59'7 9.7
2014-Sep-12 12:33N 22°02' E 113°52'1111.3
2014-Sep-12 11:33N 22°13' E 113°49'1110.8
2014-Sep-12 10:33N 22°23' E 113°46'1313.0
2014-Sep-12 09:32N 22°36' E 113°43'1111.0
2014-Sep-12 08:33N 22°46' E 113°38'9 9.2
2014-Sep-12 07:33N 22°54' E 113°34'9 8.8
2014-Sep-12 06:33N 23°03' E 113°31'1 1.0
2014-Sep-12 05:27N 23°04' E 113°30'0 0.0
2014-Sep-12 04:27N 23°04' E 113°30'0 0.0
2014-Sep-12 03:33N 23°04' E 113°30'0 0.0
2014-Sep-12 02:27N 23°04' E 113°30'0 0.0
2014-Sep-12 01:21N 23°04' E 113°30'0 0.0
2014-Sep-12 00:27N 23°04' E 113°30'0 0.0
2014-Sep-11 23:27N 23°04' E 113°30'0 0.0
2014-Sep-11 22:33N 23°04' E 113°30'0 0.0
2014-Sep-11 21:21N 23°04' E 113°30'0 0.0
2014-Sep-11 20:33N 23°04' E 113°30'0 0.0
2014-Sep-11 19:21N 23°04' E 113°30'0 0.0
2014-Sep-11 18:27N 23°04' E 113°30'0 0.0
2014-Sep-11 17:33N 23°04' E 113°30'0 0.0
2014-Sep-11 16:33N 23°04' E 113°30'0 0.0
2014-Sep-11 15:21N 23°04' E 113°30'0 0.0
2014-Sep-11 14:21N 23°04' E 113°30'0 0.0
2014-Sep-11 13:27N 23°04' E 113°30'0 0.0
2014-Sep-11 12:27N 23°04' E 113°30'0 0.0
2014-Sep-11 11:21N 23°04' E 113°30'0 0.0
2014-Sep-11 10:27N 23°04' E 113°30'0 0.0
2014-Sep-11 09:27N 23°04' E 113°30'0 0.0
2014-Sep-11 08:33N 23°04' E 113°30'0 0.0
2014-Sep-11 07:14N 23°04' E 113°30'0 0.0
2014-Sep-11 06:33N 23°04' E 113°30'0 0.0
2014-Sep-11 05:32N 23°04' E 113°30'0 0.0
2014-Sep-11 04:33N 23°04' E 113°30'0 0.0
2014-Sep-11 03:14N 23°04' E 113°30'0 0.0
2014-Sep-11 02:32N 23°04' E 113°30'0 0.0
2014-Sep-11 01:33N 23°04' E 113°30'0 0.0
2014-Sep-11 00:26N 23°04' E 113°30'0 0.0
2014-Sep-10 23:33N 23°04' E 113°30'0 0.0
2014-Sep-10 22:20N 23°04' E 113°30'0 0.0
2014-Sep-10 21:27N 23°04' E 113°30'0 0.0
2014-Sep-10 20:33N 23°04' E 113°30'0 0.0
2014-Sep-10 19:33N 23°04' E 113°30'0 0.0
2014-Sep-10 18:21N 23°04' E 113°30'0 0.0
2014-Sep-10 17:33N 23°04' E 113°30'0 0.0
2014-Sep-10 16:33N 23°04' E 113°30'2 1.8
2014-Sep-10 15:33N 23°02' E 113°31'9 8.5
2014-Sep-10 14:33N 22°54' E 113°34'9 9.2
2014-Sep-10 13:33N 22°46' E 113°39'11 9.6
2014-Sep-10 12:27N 22°36' E 113°43'1011.1
2014-Sep-10 11:33N 22°26' E 113°45'1010.3
2014-Sep-10 10:33N 22°16' E 113°48'10 9.7
2014-Sep-10 09:33N 22°07' E 113°51'9 8.9
2014-Sep-10 08:33N 21°58' E 113°54'0 0.3
2014-Sep-10 07:11N 21°58' E 113°54'0 0.0
2014-Sep-10 06:23N 21°58' E 113°54'0 0.1
2014-Sep-10 03:23N 21°58' E 113°54'0 0.1
2014-Sep-10 02:29N 21°58' E 113°54'0 0.1
2014-Sep-10 01:23N 21°58' E 113°54'0 0.0
2014-Sep-09 23:08N 21°58' E 113°54'3 4.5
2014-Sep-09 22:33N 21°58' E 113°57'19310.1
2014-Sep-09 03:25N 23°04' E 117°13'46 8.7
2014-Sep-08 22:10N 23°33' E 117°53'6 9.9
2014-Sep-08 21:33N 23°37' E 117°58'1110.6
2014-Sep-08 20:33N 23°44' E 118°07'1110.9
2014-Sep-08 19:33N 23°51' E 118°15'  
Track history (hours):
 
Tides and Currents Weather Stations Pressure Air Temp Water Temp Dewpoint Dewpoint Depression Visibility Wind Speed Wind Dir Waves Ship Positions

An Xiu Shan

Last reported at 2014-Sep-18 19:14 UTC. Time now 2014-Sep-18 19:46 UTC.
Position N 39°46' E 119°53'.

Length 199 m; draft 7.2 m.

Type: Cargo ship. MMSI: 413195000.

Date/timePositionNaut miles runAvg speedWind from/ knotsBaromVisibWave heightAir tempDewpointWater temp
2014-Sep-18 19:14N 39°46' E 119°53'0 0.0
2014-Sep-18 18:32N 39°46' E 119°53'0 0.0
2014-Sep-18 11:32N 39°46' E 119°53'0 0.0
2014-Sep-18 10:32N 39°46' E 119°53'0 0.0
2014-Sep-18 09:32N 39°46' E 119°53'0 0.0
2014-Sep-18 08:32N 39°46' E 119°53'0 0.0
2014-Sep-18 07:32N 39°46' E 119°53'0 0.0
2014-Sep-18 06:32N 39°46' E 119°53'0 0.0
2014-Sep-18 05:32N 39°46' E 119°53'0 0.0
2014-Sep-18 04:32N 39°46' E 119°53'0 0.0
2014-Sep-18 03:20N 39°46' E 119°53'0 0.1
2014-Sep-18 02:32N 39°46' E 119°53'0 0.0
2014-Sep-18 01:32N 39°46' E 119°53'0 0.0
2014-Sep-18 00:32N 39°46' E 119°53'0 0.0
2014-Sep-17 23:14N 39°46' E 119°53'0 0.0
2014-Sep-17 21:32N 39°46' E 119°53'0 0.1
2014-Sep-17 20:32N 39°46' E 119°53'0 0.0
2014-Sep-17 19:32N 39°46' E 119°53'0 0.1
2014-Sep-17 18:32N 39°46' E 119°53'0 0.0
2014-Sep-17 17:26N 39°46' E 119°53'0 0.0
2014-Sep-17 16:32N 39°46' E 119°53'0 0.0
2014-Sep-17 15:32N 39°46' E 119°53'5 4.7
2014-Sep-17 14:33N 39°42' E 119°56'11110.8
2014-Sep-17 04:19N 38°19' E 121°30'4010.7
2014-Sep-17 00:33N 37°56' E 122°13'1111.2
2014-Sep-16 23:32N 37°50' E 122°25'1110.8
2014-Sep-16 22:33N 37°44' E 122°36'1010.1
2014-Sep-16 21:33N 37°35' E 122°43'1010.4
2014-Sep-16 20:33N 37°27' E 122°52'1110.8
2014-Sep-16 19:33N 37°17' E 122°53'1211.8
2014-Sep-16 18:33N 37°05' E 122°53'1212.4
2014-Sep-16 17:33N 36°52' E 122°53'1212.2
2014-Sep-16 16:33N 36°40' E 122°53'1111.4
2014-Sep-16 15:33N 36°29' E 122°55'29711.9
2014-Sep-15 14:31N 31°32' E 122°56'3210.8
2014-Sep-15 11:31N 30°60' E 122°57'1211.4
2014-Sep-15 10:29N 30°48' E 123°01'2511.9
2014-Sep-15 08:25N 30°23' E 123°01'1112.3
2014-Sep-15 07:33N 30°13' E 122°60'1211.3
2014-Sep-15 06:32N 30°02' E 122°56'1111.0
2014-Sep-15 05:31N 29°51' E 122°53'2310.4
2014-Sep-15 03:20N 29°30' E 122°44'910.0
2014-Sep-15 02:27N 29°21' E 122°40'9 9.7
2014-Sep-15 01:32N 29°13' E 122°37'1010.1
2014-Sep-15 00:30N 29°03' E 122°34'28610.1
2014-Sep-13 20:14N 25°01' E 119°43'2311.7
2014-Sep-13 18:17N 24°45' E 119°26'912.2
2014-Sep-13 17:32N 24°39' E 119°17'1312.6
2014-Sep-13 16:33N 24°31' E 119°08'1312.6
2014-Sep-13 15:33N 24°22' E 118°58'1313.3
2014-Sep-13 14:33N 24°13' E 118°47'1413.6
2014-Sep-13 13:31N 24°06' E 118°34'1212.5
2014-Sep-13 12:33N 23°57' E 118°25'1312.6
2014-Sep-13 11:33N 23°49' E 118°14'1212.2
2014-Sep-13 10:33N 23°41' E 118°04'1111.3
2014-Sep-13 09:33N 23°35' E 117°53'1411.3
2014-Sep-13 08:20N 23°25' E 117°43'1011.7
2014-Sep-13 07:29N 23°19' E 117°34'21511.8
2014-Sep-12 13:19N 21°58' E 113°59'7 9.7
2014-Sep-12 12:33N 22°02' E 113°52'1111.3
2014-Sep-12 11:33N 22°13' E 113°49'1110.8
2014-Sep-12 10:33N 22°23' E 113°46'1313.0
2014-Sep-12 09:32N 22°36' E 113°43'1111.0
2014-Sep-12 08:33N 22°46' E 113°38'9 9.2
2014-Sep-12 07:33N 22°54' E 113°34'9 8.8
2014-Sep-12 06:33N 23°03' E 113°31'1 1.0
2014-Sep-12 05:27N 23°04' E 113°30'0 0.0
2014-Sep-12 04:27N 23°04' E 113°30'0 0.0
2014-Sep-12 03:33N 23°04' E 113°30'0 0.0
2014-Sep-12 02:27N 23°04' E 113°30'0 0.0
2014-Sep-12 01:21N 23°04' E 113°30'0 0.0
2014-Sep-12 00:27N 23°04' E 113°30'0 0.0
2014-Sep-11 23:27N 23°04' E 113°30'0 0.0
2014-Sep-11 22:33N 23°04' E 113°30'0 0.0
2014-Sep-11 21:21N 23°04' E 113°30'0 0.0
2014-Sep-11 20:33N 23°04' E 113°30'0 0.0
2014-Sep-11 19:21N 23°04' E 113°30'0 0.0
2014-Sep-11 18:27N 23°04' E 113°30'0 0.0
2014-Sep-11 17:33N 23°04' E 113°30'0 0.0
2014-Sep-11 16:33N 23°04' E 113°30'0 0.0
2014-Sep-11 15:21N 23°04' E 113°30'0 0.0
2014-Sep-11 14:21N 23°04' E 113°30'0 0.0
2014-Sep-11 13:27N 23°04' E 113°30'0 0.0
2014-Sep-11 12:27N 23°04' E 113°30'0 0.0
2014-Sep-11 11:21N 23°04' E 113°30'0 0.0
2014-Sep-11 10:27N 23°04' E 113°30'0 0.0
2014-Sep-11 09:27N 23°04' E 113°30'0 0.0
2014-Sep-11 08:33N 23°04' E 113°30'0 0.0
2014-Sep-11 07:14N 23°04' E 113°30'0 0.0
2014-Sep-11 06:33N 23°04' E 113°30'0 0.0
2014-Sep-11 05:32N 23°04' E 113°30'0 0.0
2014-Sep-11 04:33N 23°04' E 113°30'0 0.0
2014-Sep-11 03:14N 23°04' E 113°30'0 0.0
2014-Sep-11 02:32N 23°04' E 113°30'0 0.0
2014-Sep-11 01:33N 23°04' E 113°30'0 0.0
2014-Sep-11 00:26N 23°04' E 113°30'0 0.0
2014-Sep-10 23:33N 23°04' E 113°30'0 0.0
2014-Sep-10 22:20N 23°04' E 113°30'0 0.0
2014-Sep-10 21:27N 23°04' E 113°30'0 0.0
2014-Sep-10 20:33N 23°04' E 113°30'0 0.0
2014-Sep-10 19:33N 23°04' E 113°30'0 0.0
2014-Sep-10 18:21N 23°04' E 113°30'0 0.0
2014-Sep-10 17:33N 23°04' E 113°30'0 0.0
2014-Sep-10 16:33N 23°04' E 113°30'2 1.8
2014-Sep-10 15:33N 23°02' E 113°31'9 8.5
2014-Sep-10 14:33N 22°54' E 113°34'9 9.2
2014-Sep-10 13:33N 22°46' E 113°39'11 9.6
2014-Sep-10 12:27N 22°36' E 113°43'1011.1
2014-Sep-10 11:33N 22°26' E 113°45'1010.3
2014-Sep-10 10:33N 22°16' E 113°48'10 9.7
2014-Sep-10 09:33N 22°07' E 113°51'9 8.9
2014-Sep-10 08:33N 21°58' E 113°54'0 0.3
2014-Sep-10 07:11N 21°58' E 113°54'0 0.0
2014-Sep-10 06:23N 21°58' E 113°54'0 0.1
2014-Sep-10 03:23N 21°58' E 113°54'0 0.1
2014-Sep-10 02:29N 21°58' E 113°54'0 0.1
2014-Sep-10 01:23N 21°58' E 113°54'0 0.0
2014-Sep-09 23:08N 21°58' E 113°54'3 4.5
2014-Sep-09 22:33N 21°58' E 113°57'19310.1
2014-Sep-09 03:25N 23°04' E 117°13'46 8.7
2014-Sep-08 22:10N 23°33' E 117°53'6 9.9
2014-Sep-08 21:33N 23°37' E 117°58'1110.6
2014-Sep-08 20:33N 23°44' E 118°07'1110.9
2014-Sep-08 19:33N 23°51' E 118°15'  

Dump ship's entire track history